createdAt,value
2022-08-24T00:01:47.635Z,24.34
2022-08-24T00:04:16.241Z,24.22
2022-08-24T00:06:44.643Z,24.18
2022-08-24T00:09:11.526Z,24.14
2022-08-24T00:11:38.577Z,23.98
2022-08-24T00:14:05.539Z,23.68
2022-08-24T00:16:32.493Z,23.69
2022-08-24T00:19:00.606Z,23.58
2022-08-24T00:21:27.659Z,23.59
2022-08-24T00:23:54.640Z,23.51
2022-08-24T00:26:29.030Z,23.58
2022-08-24T00:28:58.205Z,23.56
2022-08-24T00:31:26.315Z,23.60
2022-08-24T00:33:54.398Z,23.59
2022-08-24T00:36:21.940Z,23.65
2022-08-24T00:38:49.643Z,23.61
2022-08-24T00:41:18.007Z,23.44
2022-08-24T00:43:58.390Z,23.47
2022-08-24T00:47:00.051Z,23.47
2022-08-24T00:49:44.598Z,23.49
2022-08-24T00:52:45.200Z,23.46
2022-08-24T00:55:20.793Z,23.48
2022-08-24T00:57:51.562Z,23.48
2022-08-24T01:00:25.444Z,23.49
2022-08-24T01:02:59.412Z,23.49
2022-08-24T01:05:26.383Z,23.51
2022-08-24T01:07:53.521Z,23.55
2022-08-24T01:10:27.794Z,23.51
2022-08-24T01:13:05.728Z,23.56
2022-08-24T01:15:45.860Z,23.54
2022-08-24T01:18:48.699Z,23.49
2022-08-24T01:21:36.736Z,23.49
2022-08-24T01:24:11.094Z,23.45
2022-08-24T01:26:44.448Z,23.43
2022-08-24T01:29:20.949Z,23.51
2022-08-24T01:31:51.310Z,23.56
2022-08-24T01:34:18.479Z,23.55
2022-08-24T01:36:54.231Z,23.51
2022-08-24T01:39:40.228Z,23.40
2022-08-24T01:42:07.779Z,23.43
2022-08-24T01:44:37.781Z,23.33
2022-08-24T01:47:08.791Z,23.19
2022-08-24T01:49:41.510Z,23.07
2022-08-24T01:52:12.725Z,23.23
2022-08-24T01:54:43.345Z,23.13
2022-08-24T01:57:16.318Z,23.09
2022-08-24T01:59:44.467Z,23.06
2022-08-24T02:02:24.026Z,23.00
2022-08-24T02:04:50.961Z,23.05
2022-08-24T02:07:19.217Z,23.11
2022-08-24T02:09:47.068Z,22.97
2022-08-24T02:12:14.562Z,22.95
2022-08-24T02:14:42.063Z,22.91
2022-08-24T02:17:09.702Z,22.73
2022-08-24T02:19:37.626Z,22.53
2022-08-24T02:22:06.055Z,22.57
2022-08-24T02:24:33.302Z,22.73
2022-08-24T02:27:00.489Z,22.52
2022-08-24T02:29:27.412Z,22.59
2022-08-24T02:31:54.451Z,22.64
2022-08-24T02:34:21.570Z,22.51
2022-08-24T02:36:51.507Z,22.58
2022-08-24T02:39:18.474Z,22.55
2022-08-24T02:41:45.640Z,22.58
2022-08-24T02:44:12.605Z,22.55
2022-08-24T02:46:39.942Z,22.46
2022-08-24T02:49:11.374Z,22.45
2022-08-24T02:51:44.530Z,22.65
2022-08-24T02:54:17.741Z,22.63
2022-08-24T02:56:46.169Z,22.64
2022-08-24T02:59:13.900Z,22.50
2022-08-24T03:01:41.155Z,22.56
2022-08-24T03:04:08.375Z,22.48
2022-08-24T03:06:35.251Z,22.51
2022-08-24T03:09:03.494Z,22.50
2022-08-24T03:11:30.451Z,22.51
2022-08-24T03:13:59.151Z,22.35
2022-08-24T03:16:28.303Z,22.26
2022-08-24T03:18:55.359Z,22.15
2022-08-24T03:21:22.305Z,22.16
2022-08-24T03:23:49.277Z,22.12
2022-08-24T03:26:16.240Z,22.15
2022-08-24T03:28:44.650Z,22.07
2022-08-24T03:31:12.786Z,22.17
2022-08-24T03:33:39.785Z,22.15
2022-08-24T03:36:12.342Z,22.09
2022-08-24T03:38:41.469Z,22.04
2022-08-24T03:41:08.943Z,22.09
2022-08-24T03:43:47.092Z,22.14
2022-08-24T03:46:21.399Z,22.18
2022-08-24T03:48:49.242Z,22.22
2022-08-24T03:51:21.281Z,22.23
2022-08-24T03:53:48.268Z,22.27
2022-08-24T03:56:16.414Z,22.22
2022-08-24T03:58:43.527Z,22.22
2022-08-24T04:01:11.622Z,22.19
2022-08-24T04:03:43.320Z,22.15
2022-08-24T04:06:12.206Z,22.06
2022-08-24T04:08:41.439Z,22.11
2022-08-24T04:11:15.300Z,21.96
2022-08-24T04:13:42.298Z,21.92
2022-08-24T04:16:14.668Z,21.82
2022-08-24T04:18:42.101Z,21.71
2022-08-24T04:21:25.499Z,21.66
2022-08-24T04:23:53.839Z,21.76
2022-08-24T04:26:44.193Z,21.86
2022-08-24T04:29:13.526Z,21.96
2022-08-24T04:31:42.918Z,21.89
2022-08-24T04:34:11.585Z,21.83
2022-08-24T04:36:42.199Z,21.94
2022-08-24T04:39:09.222Z,22.02
2022-08-24T04:41:36.876Z,22.11
2022-08-24T04:44:04.761Z,22.16
2022-08-24T04:46:31.707Z,22.17
2022-08-24T04:48:58.614Z,22.27
2022-08-24T04:51:25.579Z,22.36
2022-08-24T04:53:52.504Z,22.50
2022-08-24T04:56:25.616Z,22.53
2022-08-24T04:58:54.229Z,22.68
2022-08-24T05:01:24.896Z,22.83
2022-08-24T05:03:54.621Z,23.03
2022-08-24T05:06:30.479Z,23.36
2022-08-24T05:08:58.590Z,23.52
2022-08-24T05:11:26.833Z,23.74
2022-08-24T05:13:56.232Z,23.97
2022-08-24T05:16:25.281Z,24.18
2022-08-24T05:18:52.380Z,24.45
2022-08-24T05:21:21.770Z,24.55
2022-08-24T05:23:49.156Z,24.79
2022-08-24T05:26:21.444Z,25.17
2022-08-24T05:28:48.423Z,25.55
2022-08-24T05:31:19.909Z,25.89
2022-08-24T05:33:48.189Z,26.08
2022-08-24T05:36:29.003Z,26.14
2022-08-24T05:38:58.763Z,26.34
2022-08-24T05:41:26.105Z,26.60
2022-08-24T05:43:53.676Z,26.97
2022-08-24T05:46:21.084Z,27.38
2022-08-24T05:48:52.711Z,27.78
2022-08-24T05:51:21.327Z,28.15
2022-08-24T05:53:48.485Z,28.60
2022-08-24T05:56:18.108Z,29.01
2022-08-24T05:58:46.235Z,29.20
2022-08-24T06:01:16.110Z,29.18
2022-08-24T06:03:44.144Z,29.07
2022-08-24T06:06:13.464Z,28.88
2022-08-24T06:08:49.969Z,29.09
2022-08-24T06:11:37.214Z,29.70
2022-08-24T06:14:12.033Z,30.13
2022-08-24T06:16:44.143Z,30.68
2022-08-24T06:19:15.404Z,31.48
2022-08-24T06:21:44.178Z,31.71
2022-08-24T06:24:11.050Z,31.70
2022-08-24T06:26:56.200Z,31.73
2022-08-24T06:29:23.134Z,32.29
2022-08-24T06:31:54.609Z,32.49
2022-08-24T06:34:26.063Z,32.99
2022-08-24T06:36:53.116Z,33.88
2022-08-24T06:39:20.868Z,34.76
2022-08-24T06:41:47.733Z,35.51
2022-08-24T06:44:14.654Z,36.38
2022-08-24T06:46:41.623Z,37.28
2022-08-24T06:49:08.659Z,38.00
2022-08-24T06:51:35.738Z,39.11
2022-08-24T06:54:02.684Z,39.04
2022-08-24T06:56:29.633Z,39.22
2022-08-24T06:58:56.733Z,38.21
2022-08-24T07:01:26.587Z,38.90
2022-08-24T07:03:53.685Z,38.91
2022-08-24T07:06:22.015Z,38.87
2022-08-24T07:08:49.255Z,39.44
2022-08-24T07:11:18.509Z,39.92
2022-08-24T07:13:47.624Z,39.66
2022-08-24T07:16:19.478Z,39.75
2022-08-24T07:18:49.836Z,39.70
2022-08-24T07:21:19.685Z,38.71
2022-08-24T07:23:49.213Z,37.52
2022-08-24T07:26:22.635Z,36.92
2022-08-24T07:28:56.276Z,37.57
2022-08-24T07:31:23.207Z,38.18
2022-08-24T07:33:50.212Z,38.36
2022-08-24T07:36:22.513Z,38.50
2022-08-24T07:38:54.392Z,39.30
2022-08-24T07:41:51.370Z,39.58
2022-08-24T07:44:12.498Z,40.25
2022-08-24T07:46:41.151Z,41.03
2022-08-24T07:49:20.293Z,41.35
2022-08-24T07:51:55.739Z,41.49
2022-08-24T07:54:22.762Z,41.67
2022-08-24T07:56:50.278Z,42.18
2022-08-24T07:59:18.095Z,42.84
2022-08-24T08:01:45.041Z,43.41
2022-08-24T08:04:14.077Z,44.17
2022-08-24T08:06:42.195Z,44.83
2022-08-24T08:09:09.213Z,45.14
2022-08-24T08:11:36.142Z,45.46
2022-08-24T08:14:03.102Z,45.87
2022-08-24T08:16:30.194Z,46.06
2022-08-24T08:19:12.490Z,46.08
2022-08-24T08:22:10.179Z,46.66
2022-08-24T08:24:43.720Z,46.88
2022-08-24T08:27:17.444Z,46.27
2022-08-24T08:29:44.834Z,46.30
2022-08-24T08:32:17.266Z,46.60
2022-08-24T08:34:45.643Z,47.34
2022-08-24T08:37:14.100Z,47.86
2022-08-24T08:39:41.693Z,48.68
2022-08-24T08:42:28.496Z,49.71
2022-08-24T08:45:10.076Z,49.65
2022-08-24T08:48:26.305Z,49.28
2022-08-24T08:51:33.675Z,49.89
2022-08-24T08:54:26.812Z,49.96
2022-08-24T08:57:24.329Z,50.81
2022-08-24T09:00:19.534Z,50.33
2022-08-24T09:03:32.649Z,49.03
2022-08-24T09:06:36.933Z,50.07
2022-08-24T09:09:37.526Z,50.89
2022-08-24T09:12:44.616Z,51.19
2022-08-24T09:15:45.420Z,51.72
2022-08-24T09:18:42.915Z,52.23
2022-08-24T09:21:34.007Z,53.18
2022-08-24T09:24:30.093Z,53.83
2022-08-24T09:27:40.117Z,54.22
2022-08-24T09:30:23.761Z,53.78
2022-08-24T09:33:21.021Z,53.81
2022-08-24T09:36:14.770Z,53.84
2022-08-24T09:39:10.714Z,54.23
2022-08-24T09:42:22.542Z,54.98
2022-08-24T09:45:25.504Z,55.09
2022-08-24T09:48:16.941Z,56.06
2022-08-24T09:51:21.090Z,56.57
2022-08-24T09:54:44.006Z,56.15
2022-08-24T09:57:59.361Z,56.69
2022-08-24T10:00:41.902Z,56.82
2022-08-24T10:03:46.114Z,56.61
2022-08-24T10:06:38.699Z,56.75
2022-08-24T10:09:40.938Z,55.44
2022-08-24T10:12:25.491Z,55.33
2022-08-24T10:15:17.927Z,54.51
2022-08-24T10:18:08.882Z,55.14
2022-08-24T10:21:17.867Z,54.74
2022-08-24T10:24:07.474Z,53.43
2022-08-24T10:27:04.717Z,51.92
2022-08-24T10:29:58.700Z,50.37
2022-08-24T10:32:56.965Z,47.50
2022-08-24T10:35:33.710Z,45.72
2022-08-24T10:38:49.859Z,44.19
2022-08-24T10:41:47.614Z,42.32
2022-08-24T10:44:49.073Z,41.24
2022-08-24T10:47:30.792Z,40.36
2022-08-24T10:50:21.077Z,39.31
2022-08-24T10:52:58.071Z,38.67
2022-08-24T10:55:30.330Z,38.18
2022-08-24T10:58:28.692Z,37.57
2022-08-24T11:00:56.631Z,36.91
2022-08-24T11:03:28.580Z,36.25
2022-08-24T11:05:57.320Z,36.17
2022-08-24T11:08:28.484Z,36.07
2022-08-24T11:11:13.130Z,35.88
2022-08-24T11:14:00.413Z,35.32
2022-08-24T11:16:47.981Z,35.17
2022-08-24T11:19:32.633Z,35.10
2022-08-24T11:22:06.641Z,35.03
2022-08-24T11:24:48.621Z,35.02
2022-08-24T11:27:34.269Z,34.77
2022-08-24T11:30:25.261Z,34.65
2022-08-24T11:33:00.536Z,34.39
2022-08-24T11:35:36.282Z,34.29
2022-08-24T11:38:16.359Z,34.22
2022-08-24T11:41:01.799Z,34.08
2022-08-24T11:44:04.529Z,34.12
2022-08-24T11:46:50.969Z,33.97
2022-08-24T11:49:24.670Z,33.50
2022-08-24T11:52:00.450Z,33.52
2022-08-24T11:55:02.195Z,33.42
2022-08-24T11:57:50.058Z,33.01
2022-08-24T12:00:21.955Z,33.08
2022-08-24T12:03:39.127Z,33.11
2022-08-24T12:06:32.474Z,33.19
2022-08-24T12:09:39.670Z,33.11
2022-08-24T12:12:57.243Z,33.34
2022-08-24T12:16:18.185Z,33.39
2022-08-24T12:18:54.357Z,33.25
2022-08-24T12:21:26.521Z,33.30
2022-08-24T12:24:05.548Z,33.12
2022-08-24T12:27:00.564Z,33.18
2022-08-24T12:30:05.499Z,33.32
2022-08-24T12:32:46.265Z,33.07
2022-08-24T12:35:35.495Z,33.05
2022-08-24T12:38:23.212Z,33.23
2022-08-24T12:43:51.412Z,33.16
2022-08-24T12:46:25.996Z,32.79
2022-08-24T12:49:01.330Z,32.95
2022-08-24T12:52:09.569Z,32.85
2022-08-24T12:55:40.984Z,33.00
2022-08-24T12:58:34.598Z,33.09
2022-08-24T13:01:06.834Z,33.12
2022-08-24T13:03:38.946Z,33.17
2022-08-24T13:06:20.112Z,32.99
2022-08-24T13:08:51.213Z,32.93
2022-08-24T13:11:24.335Z,32.78
2022-08-24T13:13:57.355Z,32.88
2022-08-24T13:16:55.199Z,33.02
2022-08-24T13:19:37.464Z,33.15
2022-08-24T13:22:10.268Z,32.94
2022-08-24T13:24:40.142Z,33.13
2022-08-24T13:27:12.809Z,33.02
2022-08-24T13:30:08.603Z,32.71
2022-08-24T13:32:39.102Z,32.78
2022-08-24T13:35:39.910Z,32.72
2022-08-24T13:38:34.556Z,32.74
2022-08-24T13:41:22.585Z,32.64
2022-08-24T13:44:00.453Z,32.89
2022-08-24T13:47:00.649Z,32.86
2022-08-24T13:49:53.115Z,32.75
2022-08-24T13:52:37.978Z,32.90
2022-08-24T13:55:31.830Z,32.96
2022-08-24T13:58:36.410Z,32.92
2022-08-24T14:01:25.421Z,32.82
2022-08-24T14:04:10.727Z,32.74
2022-08-24T14:07:08.550Z,32.82
2022-08-24T14:10:08.973Z,32.73
2022-08-24T14:13:14.556Z,32.74
2022-08-24T14:16:59.838Z,32.58
2022-08-24T14:20:14.283Z,32.65
2022-08-24T14:23:20.971Z,32.61
2022-08-24T14:25:49.222Z,32.56
2022-08-24T14:28:40.635Z,32.64
2022-08-24T14:31:27.906Z,32.62
2022-08-24T14:34:08.054Z,32.62
2022-08-24T14:36:54.998Z,32.60
2022-08-24T14:39:35.812Z,32.51
2022-08-24T14:42:24.670Z,32.63
2022-08-24T14:45:12.694Z,32.62
2022-08-24T14:48:24.458Z,32.52
2022-08-24T14:51:03.148Z,32.58
2022-08-24T14:54:12.068Z,32.67
2022-08-24T14:57:18.718Z,32.57
2022-08-24T15:00:02.984Z,32.51
2022-08-24T15:02:29.741Z,32.31
2022-08-24T15:05:22.133Z,32.54
2022-08-24T15:08:28.563Z,32.46
2022-08-24T15:11:18.656Z,32.49
2022-08-24T15:14:04.473Z,32.51
2022-08-24T15:17:02.226Z,32.50
2022-08-24T15:19:29.046Z,32.63
2022-08-24T15:22:08.943Z,32.50
2022-08-24T15:24:35.740Z,32.47
2022-08-24T15:27:27.566Z,32.55
2022-08-24T15:30:02.479Z,32.34
2022-08-24T15:32:48.835Z,32.43
2022-08-24T15:35:47.911Z,32.55
2022-08-24T15:38:30.352Z,32.50
2022-08-24T15:41:17.991Z,32.64
2022-08-24T15:43:56.825Z,32.53
2022-08-24T15:46:31.922Z,32.57
2022-08-24T15:49:07.040Z,32.59
2022-08-24T15:51:43.557Z,32.50
2022-08-24T15:54:30.993Z,32.60
2022-08-24T15:57:28.206Z,32.54
2022-08-24T16:00:13.599Z,32.56
2022-08-24T16:02:41.864Z,32.53
2022-08-24T16:05:25.091Z,32.50
2022-08-24T16:08:18.051Z,32.68
2022-08-24T16:10:48.922Z,32.71
2022-08-24T16:13:18.729Z,32.64
2022-08-24T16:16:02.688Z,32.53
2022-08-24T16:18:49.439Z,32.41
2022-08-24T16:21:29.646Z,32.43
2022-08-24T16:24:21.535Z,32.39
2022-08-24T16:26:48.780Z,32.42
2022-08-24T16:29:37.241Z,32.49
2022-08-24T16:32:53.789Z,32.43
2022-08-24T16:35:24.194Z,32.48
2022-08-24T16:37:52.748Z,32.50
2022-08-24T16:40:20.088Z,32.35
2022-08-24T16:42:47.300Z,32.38
2022-08-24T16:45:19.198Z,32.41
2022-08-24T16:47:47.383Z,32.38
2022-08-24T16:50:17.349Z,32.36
2022-08-24T16:52:45.071Z,32.26
2022-08-24T16:55:14.435Z,32.28
2022-08-24T16:57:42.306Z,32.21
2022-08-24T17:00:15.505Z,32.22
2022-08-24T17:02:43.568Z,32.22
2022-08-24T17:05:11.347Z,32.17
2022-08-24T17:07:38.203Z,32.21
2022-08-24T17:10:09.135Z,32.23
2022-08-24T17:12:37.077Z,32.13
2022-08-24T17:15:06.682Z,32.16
2022-08-24T17:17:34.365Z,32.17
2022-08-24T17:20:01.951Z,32.08
2022-08-24T17:22:29.103Z,32.10
2022-08-24T17:24:56.022Z,32.02
2022-08-24T17:27:30.899Z,31.97
2022-08-24T17:29:59.885Z,31.90
2022-08-24T17:32:27.033Z,31.93
2022-08-24T17:34:54.044Z,31.95
2022-08-24T17:37:20.913Z,31.86
2022-08-24T17:39:55.192Z,31.85
2022-08-24T17:42:49.096Z,31.74
2022-08-24T17:45:10.332Z,31.79
2022-08-24T17:47:37.275Z,31.77
2022-08-24T17:50:06.456Z,31.63
2022-08-24T17:52:33.433Z,31.72
2022-08-24T17:55:00.264Z,31.61
2022-08-24T17:57:27.696Z,31.53
2022-08-24T17:59:54.638Z,31.53
2022-08-24T18:02:22.833Z,31.48
2022-08-24T18:04:50.409Z,31.33
2022-08-24T18:07:36.173Z,31.42
2022-08-24T18:10:11.004Z,31.23
2022-08-24T18:12:38.852Z,31.18
2022-08-24T18:15:06.780Z,31.19
2022-08-24T18:17:39.955Z,31.09
2022-08-24T18:20:11.620Z,30.96
2022-08-24T18:22:44.897Z,30.92
2022-08-24T18:25:14.433Z,30.87
2022-08-24T18:27:46.481Z,30.77
2022-08-24T18:30:30.498Z,30.60
2022-08-24T18:32:59.508Z,30.44
2022-08-24T18:35:26.528Z,30.32
2022-08-24T18:37:53.363Z,30.27
2022-08-24T18:40:21.647Z,30.30
2022-08-24T18:42:50.755Z,30.18
2022-08-24T18:45:18.034Z,30.19
2022-08-24T18:47:45.103Z,30.06
2022-08-24T18:50:21.147Z,30.04
2022-08-24T18:52:48.189Z,29.95
2022-08-24T18:55:16.755Z,29.93
2022-08-24T18:57:43.605Z,29.90
2022-08-24T19:00:11.584Z,29.88
2022-08-24T19:02:40.529Z,29.88
2022-08-24T19:05:12.917Z,29.84
2022-08-24T19:07:45.930Z,29.71
2022-08-24T19:10:21.449Z,29.64
2022-08-24T19:12:55.878Z,29.62
2022-08-24T19:15:32.190Z,29.49
2022-08-24T19:18:09.625Z,29.36
2022-08-24T19:20:42.339Z,29.30
2022-08-24T19:23:18.106Z,29.18
2022-08-24T19:25:46.019Z,29.11
2022-08-24T19:28:13.777Z,29.04
2022-08-24T19:30:42.308Z,28.97
2022-08-24T19:33:13.810Z,28.87
2022-08-24T19:35:41.547Z,28.76
2022-08-24T19:38:08.944Z,28.71
2022-08-24T19:40:35.887Z,28.66
2022-08-24T19:43:06.163Z,28.59
2022-08-24T19:45:54.419Z,28.58
2022-08-24T19:48:23.247Z,28.53
2022-08-24T19:50:52.011Z,28.51
2022-08-24T19:53:19.438Z,28.44
2022-08-24T19:55:50.110Z,28.49
2022-08-24T19:58:31.832Z,28.47
2022-08-24T20:01:11.966Z,28.37
2022-08-24T20:03:39.035Z,28.38
2022-08-24T20:06:06.229Z,28.39
2022-08-24T20:08:33.094Z,28.39
2022-08-24T20:11:00.524Z,28.36
2022-08-24T20:13:28.167Z,28.37
2022-08-24T20:15:56.384Z,28.32
2022-08-24T20:18:32.604Z,28.26
2022-08-24T20:21:00.135Z,28.26
2022-08-24T20:23:29.385Z,28.22
2022-08-24T20:25:58.754Z,28.28
2022-08-24T20:28:46.208Z,28.30
2022-08-24T20:31:18.694Z,28.27
2022-08-24T20:33:46.073Z,28.22
2022-08-24T20:36:44.994Z,28.18
2022-08-24T20:39:14.438Z,28.04
2022-08-24T20:41:41.382Z,28.05
2022-08-24T20:44:09.177Z,28.06
2022-08-24T20:46:37.541Z,28.01
2022-08-24T20:49:07.239Z,27.98
2022-08-24T20:51:34.291Z,27.91
2022-08-24T20:54:06.119Z,27.88
2022-08-24T20:56:37.688Z,27.87
2022-08-24T20:59:11.105Z,27.89
2022-08-24T21:01:41.433Z,27.87
2022-08-24T21:04:09.370Z,27.81
2022-08-24T21:06:37.173Z,27.76
2022-08-24T21:09:05.858Z,27.75
2022-08-24T21:11:33.826Z,27.79
2022-08-24T21:14:05.491Z,27.75
2022-08-24T21:16:41.624Z,27.70
2022-08-24T21:19:11.319Z,27.64
2022-08-24T21:21:42.104Z,27.53
2022-08-24T21:24:09.748Z,27.59
2022-08-24T21:26:37.271Z,27.52
2022-08-24T21:29:06.839Z,27.53
2022-08-24T21:31:34.235Z,27.48
2022-08-24T21:34:19.581Z,27.44
2022-08-24T21:36:47.920Z,27.44
2022-08-24T21:39:15.061Z,27.37
2022-08-24T21:41:41.985Z,27.38
2022-08-24T21:44:09.035Z,27.41
2022-08-24T21:46:38.425Z,27.36
2022-08-24T21:49:06.682Z,27.29
2022-08-24T21:51:34.308Z,27.26
2022-08-24T21:54:01.440Z,27.13
2022-08-24T21:56:31.504Z,27.22
2022-08-24T21:58:58.709Z,27.22
2022-08-24T22:01:25.775Z,27.12
2022-08-24T22:03:56.263Z,27.11
2022-08-24T22:06:24.435Z,27.16
2022-08-24T22:08:53.737Z,27.02
2022-08-24T22:11:25.456Z,27.06
2022-08-24T22:13:53.779Z,27.05
2022-08-24T22:16:21.827Z,27.03
2022-08-24T22:18:49.407Z,27.05
2022-08-24T22:21:21.459Z,26.98
2022-08-24T22:23:48.305Z,26.96
2022-08-24T22:26:15.634Z,27.01
2022-08-24T22:28:42.859Z,26.92
2022-08-24T22:31:31.141Z,26.92
2022-08-24T22:34:00.681Z,26.94
2022-08-24T22:36:29.102Z,26.87
2022-08-24T22:38:58.182Z,26.83
2022-08-24T22:41:29.345Z,26.86
2022-08-24T22:44:16.018Z,26.89
2022-08-24T22:46:43.314Z,26.81
2022-08-24T22:49:11.590Z,26.75
2022-08-24T22:51:39.311Z,26.77
2022-08-24T22:54:07.374Z,26.74
2022-08-24T22:56:39.475Z,26.74
2022-08-24T22:59:08.603Z,26.69
2022-08-24T23:01:41.815Z,26.67
2022-08-24T23:04:14.594Z,26.68
2022-08-24T23:06:42.050Z,26.62
2022-08-24T23:09:09.938Z,26.64
2022-08-24T23:11:37.594Z,26.62
2022-08-24T23:14:06.867Z,26.60
2022-08-24T23:16:37.362Z,26.58
2022-08-24T23:19:23.790Z,26.56
2022-08-24T23:21:50.836Z,26.48
2022-08-24T23:24:18.294Z,26.56
2022-08-24T23:26:45.346Z,26.41
2022-08-24T23:29:16.976Z,26.40
2022-08-24T23:31:46.114Z,26.27
2022-08-24T23:34:14.312Z,26.22
2022-08-24T23:36:41.754Z,26.17
2022-08-24T23:39:10.687Z,26.12
2022-08-24T23:41:44.216Z,26.03
2022-08-24T23:44:20.828Z,25.94
2022-08-24T23:46:48.922Z,25.98
2022-08-24T23:49:19.743Z,25.88
2022-08-24T23:51:47.720Z,25.79
2022-08-24T23:54:15.870Z,25.82
2022-08-24T23:56:46.014Z,25.85
2022-08-24T23:59:33.561Z,25.88
